createdAt,value
2022-09-10T00:00:31.657Z,9.80
2022-09-10T00:02:42.318Z,4.50
2022-09-10T00:04:53.501Z,5.00
2022-09-10T00:07:01.582Z,5.70
2022-09-10T00:09:11.291Z,7.57
2022-09-10T00:11:21.125Z,8.73
2022-09-10T00:13:32.877Z,8.85
2022-09-10T00:15:45.698Z,7.25
2022-09-10T00:17:48.662Z,7.35
2022-09-10T00:19:50.223Z,6.40
2022-09-10T00:21:51.683Z,13.38
2022-09-10T00:23:53.379Z,8.75
2022-09-10T00:25:56.643Z,8.52
2022-09-10T00:28:00.554Z,8.57
2022-09-10T00:30:03.926Z,10.05
2022-09-10T00:32:05.469Z,14.80
2022-09-10T00:34:07.650Z,5.45
2022-09-10T00:36:19.532Z,6.30
2022-09-10T00:38:21.186Z,9.75
2022-09-10T00:40:22.813Z,11.82
2022-09-10T00:42:24.410Z,13.98
2022-09-10T00:44:39.583Z,7.15
2022-09-10T00:46:47.628Z,8.55
2022-09-10T00:48:49.229Z,11.85
2022-09-10T00:50:51.979Z,12.02
2022-09-10T00:52:56.829Z,10.85
2022-09-10T00:54:59.435Z,6.68
2022-09-10T00:57:03.670Z,12.73
2022-09-10T00:59:06.865Z,9.70
2022-09-10T01:01:08.719Z,8.43
2022-09-10T01:03:12.137Z,12.23
2022-09-10T01:05:14.456Z,7.43
2022-09-10T01:07:16.591Z,9.27
2022-09-10T01:09:19.273Z,10.25
2022-09-10T01:11:27.127Z,10.98
2022-09-10T01:13:36.092Z,6.90
2022-09-10T01:15:47.201Z,7.55
2022-09-10T01:17:56.167Z,13.98
2022-09-10T01:20:08.867Z,9.30
2022-09-10T01:22:22.430Z,8.98
2022-09-10T01:24:24.560Z,10.40
2022-09-10T01:26:31.998Z,8.10
2022-09-10T01:28:37.868Z,12.30
2022-09-10T01:30:44.033Z,15.73
2022-09-10T01:32:45.585Z,8.30
2022-09-10T01:34:47.315Z,10.77
2022-09-10T01:36:52.081Z,7.80
2022-09-10T01:38:53.791Z,6.35
2022-09-10T01:40:56.173Z,7.47
2022-09-10T01:43:01.485Z,7.07
2022-09-10T01:45:03.203Z,7.95
2022-09-10T01:47:12.961Z,8.75
2022-09-10T01:49:26.301Z,12.13
2022-09-10T01:51:28.242Z,11.35
2022-09-10T01:53:48.350Z,12.73
2022-09-10T01:56:08.858Z,14.23
2022-09-10T01:58:20.233Z,11.43
2022-09-10T02:00:24.304Z,11.18
2022-09-10T02:04:27.539Z,8.45
2022-09-10T02:06:30.776Z,6.85
2022-09-10T02:08:34.029Z,8.73
2022-09-10T02:10:47.158Z,10.90
2022-09-10T02:12:48.705Z,7.45
2022-09-10T02:14:56.573Z,6.05
2022-09-10T02:16:59.375Z,18.20
2022-09-10T02:19:01.580Z,6.10
2022-09-10T02:21:03.374Z,7.80
2022-09-10T02:23:05.327Z,6.82
2022-09-10T02:25:07.314Z,6.53
2022-09-10T02:27:08.880Z,9.60
2022-09-10T02:29:12.433Z,6.75
2022-09-10T02:31:14.073Z,9.80
2022-09-10T02:33:18.592Z,11.57
2022-09-10T02:35:20.857Z,8.23
2022-09-10T02:37:22.557Z,7.45
2022-09-10T02:39:24.750Z,7.53
2022-09-10T02:41:26.430Z,12.68
2022-09-10T02:43:28.659Z,9.10
2022-09-10T02:45:31.062Z,19.88
2022-09-10T02:47:32.621Z,12.52
2022-09-10T02:49:34.786Z,8.43
2022-09-10T02:51:40.905Z,14.25
2022-09-10T02:53:44.463Z,78.43
2022-09-10T02:55:48.549Z,10.68
2022-09-10T02:57:53.220Z,5.57
2022-09-10T02:59:59.265Z,15.07
2022-09-10T03:02:03.472Z,25.83
2022-09-10T03:04:07.785Z,36.78
2022-09-10T03:06:13.335Z,6.82
2022-09-10T03:08:17.451Z,5.25
2022-09-10T03:12:25.089Z,7.38
2022-09-10T03:14:32.576Z,6.00
2022-09-10T03:16:36.925Z,6.03
2022-09-10T03:18:41.641Z,11.68
2022-09-10T03:20:45.608Z,6.10
2022-09-10T03:22:47.613Z,7.68
2022-09-10T03:24:49.749Z,5.80
2022-09-10T03:26:51.552Z,6.88
2022-09-10T03:28:53.193Z,3.53
2022-09-10T03:30:55.122Z,7.68
2022-09-10T03:32:57.911Z,15.80
2022-09-10T03:35:00.123Z,13.07
2022-09-10T03:37:01.563Z,5.20
2022-09-10T03:39:03.108Z,6.50
2022-09-10T03:41:04.882Z,3.30
2022-09-10T03:43:06.563Z,3.55
2022-09-10T03:45:08.487Z,7.88
2022-09-10T03:47:11.742Z,4.90
2022-09-10T03:49:14.340Z,6.65
2022-09-10T03:51:16.329Z,5.88
2022-09-10T03:53:19.601Z,4.88
2022-09-10T03:55:22.179Z,5.03
2022-09-10T03:57:23.835Z,7.22
2022-09-10T03:59:25.353Z,6.40
2022-09-10T04:01:27.346Z,6.07
2022-09-10T04:03:29.291Z,10.85
2022-09-10T04:05:30.892Z,7.40
2022-09-10T04:07:32.471Z,5.22
2022-09-10T04:09:34.170Z,7.10
2022-09-10T04:11:36.082Z,9.38
2022-09-10T04:13:37.623Z,6.63
2022-09-10T04:15:40.056Z,6.47
2022-09-10T04:17:41.576Z,7.60
2022-09-10T04:19:43.343Z,8.25
2022-09-10T04:21:44.867Z,10.85
2022-09-10T04:23:47.349Z,7.03
2022-09-10T04:25:49.593Z,7.03
2022-09-10T04:27:51.243Z,8.65
2022-09-10T04:29:52.974Z,8.07
2022-09-10T04:31:55.360Z,3.58
2022-09-10T04:33:56.912Z,6.15
2022-09-10T04:36:01.005Z,5.18
2022-09-10T04:40:04.458Z,6.28
2022-09-10T04:42:07.014Z,4.53
2022-09-10T04:44:08.895Z,7.18
2022-09-10T04:46:10.367Z,8.70
2022-09-10T04:48:12.066Z,7.07
2022-09-10T04:50:15.445Z,7.70
2022-09-10T04:52:17.371Z,4.57
2022-09-10T04:54:19.714Z,9.15
2022-09-10T04:56:21.489Z,7.65
2022-09-10T04:58:23.148Z,9.32
2022-09-10T05:00:26.624Z,11.23
2022-09-10T05:02:28.346Z,10.02
2022-09-10T05:04:29.894Z,6.10
2022-09-10T05:06:31.536Z,7.00
2022-09-10T05:08:33.171Z,4.65
2022-09-10T05:10:36.733Z,4.65
2022-09-10T05:12:40.850Z,10.43
2022-09-10T05:16:46.379Z,8.07
2022-09-10T05:18:48.633Z,5.70
2022-09-10T05:20:50.330Z,3.22
2022-09-10T05:22:52.046Z,4.82
2022-09-10T05:24:55.434Z,5.35
2022-09-10T05:26:57.087Z,4.32
2022-09-10T05:28:59.825Z,6.25
2022-09-10T05:31:01.609Z,15.40
2022-09-10T05:33:03.542Z,7.65
2022-09-10T05:35:05.403Z,10.05
2022-09-10T05:37:08.905Z,6.82
2022-09-10T05:39:10.504Z,7.18
2022-09-10T05:41:12.497Z,5.63
2022-09-10T05:43:14.008Z,11.05
2022-09-10T05:45:15.757Z,14.52
2022-09-10T05:47:17.405Z,3.58
2022-09-10T05:49:18.889Z,2.83
2022-09-10T05:51:20.361Z,6.00
2022-09-10T05:53:21.826Z,3.60
2022-09-10T05:55:23.502Z,9.30
2022-09-10T05:57:29.389Z,6.43
2022-09-10T05:59:32.327Z,3.20
2022-09-10T06:01:45.586Z,3.92
2022-09-10T06:04:00.716Z,5.45
2022-09-10T06:06:11.308Z,10.27
2022-09-10T06:08:24.472Z,3.75
2022-09-10T06:10:41.722Z,4.15
2022-09-10T06:12:52.745Z,3.50
2022-09-10T06:15:05.323Z,7.78
2022-09-10T06:17:15.636Z,6.72
2022-09-10T06:19:23.173Z,5.10
2022-09-10T06:21:34.132Z,7.75
2022-09-10T06:23:47.244Z,7.45
2022-09-10T06:26:06.772Z,6.78
2022-09-10T06:28:22.309Z,5.05
2022-09-10T06:30:24.537Z,9.18
2022-09-10T06:32:26.641Z,7.20
2022-09-10T06:34:28.261Z,11.48
2022-09-10T06:36:29.802Z,6.05
2022-09-10T06:38:33.632Z,5.90
2022-09-10T06:40:36.044Z,9.05
2022-09-10T06:42:39.006Z,7.32
2022-09-10T06:44:40.484Z,5.78
2022-09-10T06:49:05.437Z,7.70
2022-09-10T06:51:08.229Z,10.10
2022-09-10T06:53:11.630Z,7.65
2022-09-10T06:55:13.606Z,9.57
2022-09-10T06:57:15.302Z,9.60
2022-09-10T06:59:18.508Z,7.70
2022-09-10T07:01:21.555Z,12.50
2022-09-10T07:03:24.099Z,12.07
2022-09-10T07:05:27.602Z,11.32
2022-09-10T07:07:29.791Z,8.77
2022-09-10T07:09:31.297Z,7.10
2022-09-10T07:11:32.900Z,7.95
2022-09-10T07:13:35.137Z,9.82
2022-09-10T07:15:36.959Z,9.85
2022-09-10T07:17:38.687Z,8.20
2022-09-10T07:19:40.281Z,10.45
2022-09-10T07:21:42.117Z,8.02
2022-09-10T07:23:50.239Z,13.85
2022-09-10T07:25:51.975Z,10.70
2022-09-10T07:27:53.950Z,7.40
2022-09-10T07:29:55.646Z,9.10
2022-09-10T07:31:57.090Z,6.72
2022-09-10T07:33:58.861Z,9.98
2022-09-10T07:36:00.800Z,5.28
2022-09-10T07:38:02.781Z,9.20
2022-09-10T07:40:04.805Z,4.28
2022-09-10T07:42:06.577Z,8.95
2022-09-10T07:44:08.178Z,9.05
2022-09-10T07:46:14.055Z,8.98
2022-09-10T07:48:15.631Z,9.80
2022-09-10T07:50:17.183Z,9.05
2022-09-10T07:52:18.800Z,7.72
2022-09-10T07:54:20.389Z,10.55
2022-09-10T07:56:23.434Z,4.97
2022-09-10T07:58:24.955Z,8.83
2022-09-10T08:00:26.473Z,8.13
2022-09-10T08:02:28.079Z,6.07
2022-09-10T08:04:36.711Z,5.25
2022-09-10T08:06:39.090Z,7.32
2022-09-10T08:08:41.494Z,8.27
2022-09-10T08:10:43.081Z,7.40
2022-09-10T08:12:44.654Z,4.45
2022-09-10T08:14:46.200Z,6.53
2022-09-10T08:16:47.817Z,5.80
2022-09-10T08:18:50.123Z,4.05
2022-09-10T08:20:55.549Z,3.95
2022-09-10T08:22:58.542Z,7.20
2022-09-10T08:25:00.397Z,3.55
2022-09-10T08:27:01.954Z,3.25
2022-09-10T08:29:04.141Z,4.60
2022-09-10T08:31:09.936Z,9.68
2022-09-10T08:33:12.535Z,4.43
2022-09-10T08:35:14.545Z,4.18
2022-09-10T08:37:16.689Z,4.55
2022-09-10T08:39:18.310Z,4.15
2022-09-10T08:41:23.402Z,2.85
2022-09-10T08:43:31.590Z,5.90
2022-09-10T08:45:34.183Z,3.22
2022-09-10T08:47:54.556Z,3.27
2022-09-10T08:49:56.100Z,2.45
2022-09-10T08:52:01.360Z,4.60
2022-09-10T08:54:05.784Z,7.95
2022-09-10T08:56:10.205Z,2.70
2022-09-10T08:58:19.073Z,3.40
2022-09-10T09:00:23.419Z,3.25
2022-09-10T09:02:55.905Z,2.00
2022-09-10T09:04:59.487Z,7.60
2022-09-10T09:07:07.149Z,3.22
2022-09-10T09:09:18.978Z,4.10
2022-09-10T09:11:52.280Z,3.20
2022-09-10T09:14:21.512Z,5.30
2022-09-10T09:16:30.097Z,1.80
2022-09-10T09:18:45.360Z,6.07
2022-09-10T09:21:06.662Z,1.73
2022-09-10T09:23:18.582Z,3.05
2022-09-10T09:25:32.864Z,3.72
2022-09-10T09:27:49.097Z,3.97
2022-09-10T09:30:24.918Z,2.53
2022-09-10T09:32:44.153Z,2.85
2022-09-10T09:35:03.038Z,1.58
2022-09-10T09:37:15.522Z,4.47
2022-09-10T09:39:24.942Z,3.30
2022-09-10T09:41:31.080Z,1.35
2022-09-10T09:43:44.771Z,3.47
2022-09-10T09:45:47.888Z,2.35
2022-09-10T09:47:54.375Z,3.05
2022-09-10T09:49:56.643Z,3.10
2022-09-10T09:51:58.738Z,2.88
2022-09-10T09:54:39.387Z,3.15
2022-09-10T09:56:27.877Z,4.00
2022-09-10T09:58:30.833Z,4.07
2022-09-10T10:00:37.800Z,2.25
2022-09-10T10:02:39.535Z,3.25
2022-09-10T10:04:56.481Z,1.77
2022-09-10T10:06:59.239Z,4.03
2022-09-10T10:09:02.886Z,1.92
2022-09-10T10:11:04.762Z,2.40
2022-09-10T10:13:20.121Z,1.10
2022-09-10T10:15:38.863Z,1.52
2022-09-10T10:17:40.700Z,1.30
2022-09-10T10:19:44.510Z,5.30
2022-09-10T10:21:47.381Z,4.75
2022-09-10T10:23:49.374Z,7.78
2022-09-10T10:25:52.914Z,2.10
2022-09-10T10:30:14.408Z,1.98
2022-09-10T10:32:16.452Z,2.72
2022-09-10T10:34:47.674Z,2.42
2022-09-10T10:37:04.336Z,1.60
2022-09-10T10:39:14.930Z,1.90
2022-09-10T10:41:36.700Z,1.17
2022-09-10T10:43:44.679Z,2.17
2022-09-10T10:46:00.992Z,1.63
2022-09-10T10:48:14.372Z,2.25
2022-09-10T10:50:15.879Z,1.08
2022-09-10T10:52:35.498Z,1.85
2022-09-10T10:54:43.299Z,1.63
2022-09-10T10:56:50.787Z,2.28
2022-09-10T10:58:59.512Z,3.72
2022-09-10T11:01:19.910Z,9.05
2022-09-10T11:03:33.876Z,4.10
2022-09-10T11:05:38.761Z,3.88
2022-09-10T11:07:41.315Z,3.72
2022-09-10T11:09:59.135Z,3.90
2022-09-10T11:12:03.429Z,2.92
2022-09-10T11:14:17.570Z,4.10
2022-09-10T11:16:21.825Z,1.73
2022-09-10T11:18:42.988Z,2.78
2022-09-10T11:20:47.441Z,2.83
2022-09-10T11:22:51.030Z,1.65
2022-09-10T11:24:58.962Z,2.28
2022-09-10T11:27:09.171Z,1.90
2022-09-10T11:29:16.834Z,2.45
2022-09-10T11:31:38.454Z,3.15
2022-09-10T11:33:46.215Z,1.67
2022-09-10T11:35:50.768Z,2.22
2022-09-10T11:37:55.148Z,2.80
2022-09-10T11:39:59.607Z,2.42
2022-09-10T11:42:03.658Z,0.75
2022-09-10T11:44:24.122Z,3.10
2022-09-10T11:46:32.345Z,1.65
2022-09-10T11:48:48.306Z,2.28
2022-09-10T11:50:52.443Z,3.55
2022-09-10T11:52:56.564Z,1.10
2022-09-10T11:54:58.898Z,3.33
2022-09-10T11:57:03.322Z,5.07
2022-09-10T11:59:17.313Z,3.60
2022-09-10T12:01:21.823Z,3.22
2022-09-10T12:03:34.802Z,1.38
2022-09-10T12:05:55.071Z,1.08
2022-09-10T12:08:06.148Z,1.70
2022-09-10T12:10:44.328Z,1.50
2022-09-10T12:12:54.556Z,2.42
2022-09-10T12:15:12.587Z,1.40
2022-09-10T12:17:28.361Z,4.30
2022-09-10T12:19:43.466Z,2.28
2022-09-10T12:22:04.514Z,4.95
2022-09-10T12:24:41.243Z,4.23
2022-09-10T12:26:47.025Z,1.55
2022-09-10T12:29:03.423Z,0.68
2022-09-10T12:31:34.120Z,3.60
2022-09-10T12:33:46.234Z,0.65
2022-09-10T12:36:08.545Z,2.20
2022-09-10T12:38:52.125Z,5.10
2022-09-10T12:41:26.235Z,1.77
2022-09-10T12:43:40.308Z,1.75
2022-09-10T12:46:04.287Z,0.52
2022-09-10T12:48:11.587Z,1.45
2022-09-10T12:50:33.374Z,2.63
2022-09-10T12:52:35.072Z,1.65
2022-09-10T12:54:36.621Z,1.27
2022-09-10T12:56:41.470Z,2.03
2022-09-10T12:59:10.012Z,1.73
2022-09-10T13:01:38.757Z,1.85
2022-09-10T13:03:48.038Z,1.55
2022-09-10T13:05:51.504Z,1.20
2022-09-10T13:08:13.926Z,1.95
2022-09-10T13:10:29.122Z,0.85
2022-09-10T13:12:32.866Z,0.77
2022-09-10T13:16:40.327Z,6.57
2022-09-10T13:18:42.158Z,0.40
2022-09-10T13:20:43.877Z,1.88
2022-09-10T13:23:02.404Z,1.70
2022-09-10T13:25:24.150Z,2.78
2022-09-10T13:27:39.882Z,2.80
2022-09-10T13:29:49.306Z,0.88
2022-09-10T13:31:56.162Z,1.00
2022-09-10T13:34:10.725Z,1.17
2022-09-10T13:36:17.444Z,1.10
2022-09-10T13:38:48.230Z,1.17
2022-09-10T13:40:56.250Z,2.75
2022-09-10T13:43:16.292Z,4.30
2022-09-10T13:45:23.582Z,0.30
2022-09-10T13:47:57.842Z,1.13
2022-09-10T13:50:18.061Z,0.90
2022-09-10T13:52:22.469Z,0.47
2022-09-10T13:54:34.753Z,2.30
2022-09-10T13:56:36.377Z,3.45
2022-09-10T13:58:42.106Z,0.30
2022-09-10T14:00:54.139Z,0.95
2022-09-10T14:02:56.967Z,0.20
2022-09-10T14:04:58.783Z,0.50
2022-09-10T14:07:09.034Z,1.30
2022-09-10T14:09:11.492Z,0.20
2022-09-10T14:11:13.350Z,0.90
2022-09-10T14:13:16.866Z,1.88
2022-09-10T14:15:22.078Z,2.25
2022-09-10T14:17:25.731Z,1.13
2022-09-10T14:19:32.529Z,1.55
2022-09-10T14:21:34.326Z,2.55
2022-09-10T14:23:36.073Z,0.73
2022-09-10T14:25:39.842Z,0.52
2022-09-10T14:29:43.595Z,0.85
2022-09-10T14:31:45.109Z,2.17
2022-09-10T14:33:46.804Z,2.30
2022-09-10T14:35:49.814Z,0.55
2022-09-10T14:37:51.817Z,1.85
2022-09-10T14:39:53.497Z,1.35
2022-09-10T14:42:08.546Z,3.50
2022-09-10T14:44:22.277Z,1.73
2022-09-10T14:46:42.657Z,5.65
2022-09-10T14:48:59.903Z,3.67
2022-09-10T14:51:13.506Z,0.73
2022-09-10T14:53:15.018Z,5.95
2022-09-10T14:55:17.653Z,2.58
2022-09-10T14:57:19.783Z,7.50
2022-09-10T14:59:33.287Z,2.42
2022-09-10T15:01:35.541Z,0.82
2022-09-10T15:03:40.838Z,0.82
2022-09-10T15:05:42.694Z,3.47
2022-09-10T15:07:45.410Z,2.22
2022-09-10T15:09:47.245Z,2.17
2022-09-10T15:11:54.913Z,2.75
2022-09-10T15:13:56.955Z,1.20
2022-09-10T15:15:58.471Z,2.17
2022-09-10T15:18:03.203Z,0.93
2022-09-10T15:20:06.575Z,0.70
2022-09-10T15:24:58.686Z,2.65
2022-09-10T15:27:20.513Z,0.85
2022-09-10T15:32:25.960Z,1.02
2022-09-10T15:34:54.160Z,0.40
2022-09-10T15:37:20.139Z,1.92
2022-09-10T15:42:30.530Z,1.85
2022-09-10T15:45:05.821Z,2.10
2022-09-10T15:47:23.028Z,2.65
2022-09-10T15:49:29.894Z,2.10
2022-09-10T15:51:31.448Z,2.80
2022-09-10T15:53:35.989Z,1.23
2022-09-10T15:55:38.049Z,1.40
2022-09-10T15:57:40.561Z,0.55
2022-09-10T15:59:42.051Z,0.40
2022-09-10T16:01:43.625Z,0.10
2022-09-10T16:03:46.799Z,0.95
2022-09-10T16:05:48.246Z,1.25
2022-09-10T16:07:50.007Z,1.13
2022-09-10T16:09:51.544Z,1.08
2022-09-10T16:11:53.255Z,2.50
2022-09-10T16:13:57.001Z,0.25
2022-09-10T16:16:01.921Z,0.40
2022-09-10T16:18:03.942Z,2.33
2022-09-10T16:20:05.833Z,1.65
2022-09-10T16:22:08.219Z,1.50
2022-09-10T16:24:09.810Z,2.22
2022-09-10T16:26:14.946Z,1.65
2022-09-10T16:28:16.449Z,1.40
2022-09-10T16:30:18.121Z,0.85
2022-09-10T16:32:19.649Z,1.88
2022-09-10T16:34:22.242Z,1.80
2022-09-10T16:36:23.998Z,1.10
2022-09-10T16:38:25.893Z,3.10
2022-09-10T16:40:27.328Z,1.35
2022-09-10T16:42:29.312Z,4.85
2022-09-10T16:44:32.276Z,1.65
2022-09-10T16:46:34.375Z,2.23
2022-09-10T16:48:36.969Z,0.35
2022-09-10T16:50:38.771Z,1.52
2022-09-10T16:52:40.725Z,6.13
2022-09-10T16:54:42.220Z,2.05
2022-09-10T16:56:45.244Z,1.48
2022-09-10T16:58:47.658Z,3.47
2022-09-10T17:00:51.971Z,4.55
2022-09-10T17:02:53.461Z,1.15
2022-09-10T17:04:55.756Z,2.72
2022-09-10T17:06:57.675Z,0.90
2022-09-10T17:08:59.822Z,3.78
2022-09-10T17:11:02.766Z,2.22
2022-09-10T17:13:04.502Z,3.83
2022-09-10T17:15:06.468Z,3.90
2022-09-10T17:17:08.121Z,1.67
2022-09-10T17:19:11.742Z,1.48
2022-09-10T17:21:14.649Z,2.75
2022-09-10T17:23:18.966Z,3.17
2022-09-10T17:25:21.112Z,5.85
2022-09-10T17:27:25.527Z,7.72
2022-09-10T17:29:27.335Z,13.35
2022-09-10T17:31:29.782Z,8.90
2022-09-10T17:33:31.857Z,9.82
2022-09-10T17:35:33.846Z,10.20
2022-09-10T17:37:37.019Z,7.47
2022-09-10T17:39:38.866Z,8.40
2022-09-10T17:41:40.724Z,6.93
2022-09-10T17:43:43.358Z,9.00
2022-09-10T17:45:45.596Z,8.07
2022-09-10T17:47:48.419Z,6.10
2022-09-10T17:49:53.579Z,7.32
2022-09-10T17:51:55.436Z,6.15
2022-09-10T17:53:57.725Z,7.20
2022-09-10T17:56:04.076Z,11.77
2022-09-10T17:58:05.981Z,5.88
2022-09-10T18:00:11.446Z,3.08
2022-09-10T18:02:15.453Z,2.45
2022-09-10T18:04:17.302Z,3.85
2022-09-10T18:06:19.344Z,6.57
2022-09-10T18:08:22.030Z,3.67
2022-09-10T18:10:23.932Z,3.95
2022-09-10T18:12:26.025Z,6.90
2022-09-10T18:14:28.267Z,4.63
2022-09-10T18:16:31.289Z,3.55
2022-09-10T18:18:35.243Z,5.80
2022-09-10T18:22:39.134Z,1.60
2022-09-10T18:24:40.866Z,2.70
2022-09-10T18:26:44.490Z,7.38
2022-09-10T18:28:59.384Z,3.10
2022-09-10T18:31:06.135Z,5.22
2022-09-10T18:33:12.929Z,6.93
2022-09-10T18:35:20.447Z,5.70
2022-09-10T18:37:24.593Z,7.22
2022-09-10T18:39:31.802Z,14.18
2022-09-10T18:41:40.948Z,10.05
2022-09-10T18:43:45.878Z,7.30
2022-09-10T18:45:51.309Z,9.45
2022-09-10T18:47:56.351Z,9.02
2022-09-10T18:50:00.441Z,11.48
2022-09-10T18:52:05.504Z,14.68
2022-09-10T18:54:11.509Z,21.65
2022-09-10T18:56:18.168Z,20.10
2022-09-10T18:58:20.474Z,20.85
2022-09-10T19:00:25.193Z,15.77
2022-09-10T19:02:27.424Z,17.70
2022-09-10T19:04:32.654Z,23.73
2022-09-10T19:06:36.366Z,17.80
2022-09-10T19:08:38.509Z,25.80
2022-09-10T19:10:40.446Z,17.33
2022-09-10T19:12:42.368Z,16.88
2022-09-10T19:14:46.034Z,19.25
2022-09-10T19:16:49.111Z,16.60
2022-09-10T19:18:51.837Z,21.90
2022-09-10T19:20:54.227Z,21.45
2022-09-10T19:22:56.102Z,20.17
2022-09-10T19:24:58.202Z,16.85
2022-09-10T19:27:00.221Z,12.82
2022-09-10T19:29:02.489Z,17.48
2022-09-10T19:31:05.084Z,21.45
2022-09-10T19:33:06.942Z,16.88
2022-09-10T19:35:10.540Z,17.70
2022-09-10T19:37:13.171Z,18.67
2022-09-10T19:39:16.413Z,19.40
2022-09-10T19:41:19.071Z,23.15
2022-09-10T19:43:21.354Z,20.95
2022-09-10T19:45:23.361Z,19.17
2022-09-10T19:47:25.492Z,15.27
2022-09-10T19:49:27.757Z,22.25
2022-09-10T19:51:31.292Z,19.50
2022-09-10T19:53:36.101Z,17.52
2022-09-10T19:55:38.050Z,14.77
2022-09-10T19:57:40.229Z,9.10
2022-09-10T19:59:42.750Z,13.85
2022-09-10T20:01:46.919Z,17.10
2022-09-10T20:03:50.135Z,28.70
2022-09-10T20:05:52.160Z,31.17
2022-09-10T20:07:54.132Z,23.65
2022-09-10T20:09:56.682Z,21.60
2022-09-10T20:11:58.976Z,11.77
2022-09-10T20:14:08.205Z,16.27
2022-09-10T20:16:10.422Z,25.63
2022-09-10T20:18:12.417Z,15.48
2022-09-10T20:20:14.577Z,17.42
2022-09-10T20:22:16.374Z,16.40
2022-09-10T20:24:18.345Z,13.13
2022-09-10T20:26:23.710Z,22.98
2022-09-10T20:28:25.450Z,34.63
2022-09-10T20:30:27.747Z,25.27
2022-09-10T20:32:29.848Z,24.95
2022-09-10T20:34:32.797Z,25.30
2022-09-10T20:36:35.364Z,26.67
2022-09-10T20:38:38.461Z,18.67
2022-09-10T20:40:41.992Z,22.77
2022-09-10T20:42:43.920Z,22.90
2022-09-10T20:44:46.305Z,29.83
2022-09-10T20:46:48.264Z,22.80
2022-09-10T20:48:50.629Z,34.00
2022-09-10T20:50:56.606Z,23.52
2022-09-10T20:52:58.445Z,37.28
2022-09-10T20:55:01.624Z,43.00
2022-09-10T20:57:03.592Z,55.65
2022-09-10T20:59:08.234Z,50.38
2022-09-10T21:01:12.287Z,58.53
2022-09-10T21:03:14.314Z,59.83
2022-09-10T21:05:16.107Z,60.28
2022-09-10T21:07:17.910Z,53.08
2022-09-10T21:09:19.769Z,40.88
2022-09-10T21:11:22.270Z,31.90
2022-09-10T21:13:25.941Z,25.17
2022-09-10T21:15:28.897Z,18.73
2022-09-10T21:17:31.169Z,24.20
2022-09-10T21:19:33.839Z,21.23
2022-09-10T21:21:36.725Z,18.05
2022-09-10T21:23:48.392Z,27.75
2022-09-10T21:25:51.309Z,16.77
2022-09-10T21:27:53.041Z,16.25
2022-09-10T21:29:55.176Z,14.60
2022-09-10T21:31:57.236Z,17.52
2022-09-10T21:34:03.694Z,15.65
2022-09-10T21:36:19.666Z,14.85
2022-09-10T21:38:30.392Z,12.05
2022-09-10T21:40:38.014Z,13.63
2022-09-10T21:42:42.115Z,11.57
2022-09-10T21:44:50.633Z,18.80
2022-09-10T21:47:00.825Z,10.80
2022-09-10T21:49:11.778Z,22.10
2022-09-10T21:51:21.878Z,13.60
2022-09-10T21:53:33.882Z,9.57
2022-09-10T21:55:39.559Z,10.43
2022-09-10T21:57:50.728Z,10.07
2022-09-10T22:00:02.297Z,13.70
2022-09-10T22:02:06.244Z,17.55
2022-09-10T22:04:08.526Z,13.95
2022-09-10T22:06:11.467Z,16.42
2022-09-10T22:08:13.499Z,16.17
2022-09-10T22:10:18.239Z,15.10
2022-09-10T22:12:20.249Z,21.65
2022-09-10T22:14:23.308Z,15.90
2022-09-10T22:16:25.185Z,18.27
2022-09-10T22:18:27.298Z,22.58
2022-09-10T22:20:28.886Z,18.58
2022-09-10T22:22:30.591Z,23.42
2022-09-10T22:24:32.138Z,15.20
2022-09-10T22:26:34.201Z,12.20
2022-09-10T22:28:36.058Z,12.20
2022-09-10T22:30:38.053Z,24.45
2022-09-10T22:32:39.961Z,9.70
2022-09-10T22:34:43.329Z,6.68
2022-09-10T22:36:45.862Z,12.52
2022-09-10T22:38:51.239Z,13.68
2022-09-10T22:40:53.611Z,12.02
2022-09-10T22:42:55.094Z,10.52
2022-09-10T22:44:57.395Z,12.85
2022-09-10T22:46:59.874Z,13.80
2022-09-10T22:49:01.545Z,14.73
2022-09-10T22:51:04.469Z,20.77
2022-09-10T22:53:05.929Z,12.15
2022-09-10T22:55:07.837Z,18.17
2022-09-10T22:57:09.713Z,12.90
2022-09-10T22:59:12.692Z,14.80
2022-09-10T23:01:16.116Z,13.88
2022-09-10T23:03:17.805Z,10.50
2022-09-10T23:05:19.883Z,18.10
2022-09-10T23:07:21.887Z,10.82
2022-09-10T23:09:23.465Z,11.70
2022-09-10T23:11:26.797Z,10.10
2022-09-10T23:13:28.554Z,11.90
2022-09-10T23:15:31.474Z,13.00
2022-09-10T23:17:33.603Z,9.27
2022-09-10T23:19:35.275Z,12.75
2022-09-10T23:21:40.010Z,16.50
2022-09-10T23:23:44.685Z,15.30
2022-09-10T23:25:46.686Z,23.10
2022-09-10T23:27:49.193Z,15.88
2022-09-10T23:29:50.843Z,13.68
2022-09-10T23:31:55.017Z,14.15
2022-09-10T23:36:00.018Z,15.95
2022-09-10T23:38:01.496Z,10.93
2022-09-10T23:40:03.865Z,11.52
2022-09-10T23:42:06.082Z,11.23
2022-09-10T23:44:08.114Z,26.42
2022-09-10T23:46:10.183Z,13.73
2022-09-10T23:48:11.675Z,8.73
2022-09-10T23:50:13.451Z,6.68
2022-09-10T23:52:15.905Z,5.70
2022-09-10T23:54:17.790Z,7.72
2022-09-10T23:56:20.118Z,9.75
2022-09-10T23:58:21.933Z,6.28
